Time;durP1;ratioP1;P1;durP2;ratioP2;P2;SDS_P1;SDS_P2;PMS_P1;PMS_P2;Temp;Humidity;BMP_temperature;BMP_pressure;BME280_temperature;BME280_humidity;BME280_pressure;Samples;Min_cycle;Max_cycle;Signal;HPM_P1;HPM_P2
2022/11/24 00:00:50;;;;;;;2.25;1.00;;;19.60;62.20;;;;;;5032596;28;20037;-57
2022/11/24 00:03:15;;;;;;;2.47;0.70;;;19.60;62.20;;;;;;5032217;28;20042;-58
2022/11/24 00:05:41;;;;;;;2.42;0.98;;;19.60;62.20;;;;;;5032849;28;20124;-57
2022/11/24 00:08:07;;;;;;;1.92;0.90;;;19.60;62.10;;;;;;5033046;28;20041;-57
2022/11/24 00:10:33;;;;;;;2.08;0.70;;;19.60;62.10;;;;;;5034558;28;20053;-57
2022/11/24 00:12:58;;;;;;;2.45;0.90;;;19.60;62.10;;;;;;5052724;28;20033;-57
2022/11/24 00:15:24;;;;;;;2.65;0.80;;;19.60;62.10;;;;;;5052585;28;20038;-57
2022/11/24 00:17:50;;;;;;;4.82;0.98;;;19.60;62.10;;;;;;5051956;28;20568;-57
2022/11/24 00:20:15;;;;;;;3.78;1.00;;;19.60;62.10;;;;;;5052160;28;20052;-57
2022/11/24 00:22:41;;;;;;;3.25;0.80;;;19.50;62.00;;;;;;5052156;28;20480;-57
2022/11/24 00:25:06;;;;;;;3.38;1.00;;;19.50;62.10;;;;;;5051794;28;20041;-57
2022/11/24 00:27:32;;;;;;;3.40;0.75;;;19.50;62.00;;;;;;5052220;28;20072;-57
2022/11/24 00:29:58;;;;;;;3.72;0.80;;;19.50;62.10;;;;;;5052629;28;20119;-58
2022/11/24 00:32:27;;;;;;;3.22;1.13;;;19.50;62.00;;;;;;5051810;28;20043;-57
2022/11/24 00:34:52;;;;;;;2.63;0.80;;;19.50;62.00;;;;;;5052566;28;20095;-57
2022/11/24 00:37:18;;;;;;;1.30;0.70;;;19.50;62.00;;;;;;5052672;28;20069;-57
2022/11/24 00:39:43;;;;;;;2.55;1.00;;;19.50;62.00;;;;;;5051456;28;20036;-57
2022/11/24 00:42:09;;;;;;;2.50;0.98;;;19.50;62.00;;;;;;5051894;28;20049;-58
2022/11/24 00:44:34;;;;;;;3.55;0.98;;;19.50;62.00;;;;;;5051826;28;20467;-57
2022/11/24 00:47:00;;;;;;;2.78;0.80;;;19.50;61.90;;;;;;5051592;28;20049;-57
2022/11/24 00:49:26;;;;;;;3.47;0.80;;;19.40;61.90;;;;;;5052449;28;20463;-57
2022/11/24 00:51:51;;;;;;;2.25;0.90;;;19.50;61.90;;;;;;5051260;28;20041;-57
2022/11/24 00:54:17;;;;;;;3.78;0.90;;;19.40;61.90;;;;;;5052084;28;20047;-57
2022/11/24 00:56:42;;;;;;;2.90;0.80;;;19.40;61.90;;;;;;5051782;28;20119;-58
2022/11/24 00:59:08;;;;;;;2.47;1.02;;;19.40;61.80;;;;;;5051153;28;20037;-58
2022/11/24 01:01:34;;;;;;;3.17;0.80;;;19.40;61.80;;;;;;5051921;28;20105;-57
2022/11/24 01:04:00;;;;;;;2.72;0.88;;;19.40;61.80;;;;;;5051928;28;20037;-57
2022/11/24 01:06:26;;;;;;;2.25;0.80;;;19.40;61.80;;;;;;5051277;28;20053;-57
2022/11/24 01:08:52;;;;;;;2.35;1.10;;;19.40;61.80;;;;;;5051971;28;20040;-57
2022/11/24 01:11:20;;;;;;;3.15;0.82;;;19.40;61.80;;;;;;5051865;28;20179;-57
2022/11/24 01:13:47;;;;;;;3.88;1.00;;;19.40;61.80;;;;;;5050997;28;20435;-58
2022/11/24 01:16:17;;;;;;;2.35;0.73;;;19.40;61.80;;;;;;5052067;28;20045;-57
2022/11/24 01:18:43;;;;;;;3.67;1.08;;;19.30;61.70;;;;;;5051835;28;20203;-57
2022/11/24 01:21:08;;;;;;;2.55;0.75;;;19.40;61.80;;;;;;5051080;28;20156;-58
2022/11/24 01:23:34;;;;;;;3.53;0.80;;;19.40;61.80;;;;;;5051573;28;20045;-57
2022/11/24 01:26:03;;;;;;;3.33;0.82;;;19.30;61.70;;;;;;5051960;28;20053;-58
2022/11/24 01:28:29;;;;;;;2.58;1.00;;;19.40;61.70;;;;;;5051029;28;20043;-57
2022/11/24 01:30:58;;;;;;;3.08;0.90;;;19.40;61.70;;;;;;5052130;28;20045;-58
2022/11/24 01:33:24;;;;;;;1.83;0.63;;;19.30;61.60;;;;;;5054875;28;20472;-57
2022/11/24 01:35:50;;;;;;;3.40;0.80;;;19.30;61.70;;;;;;5054880;28;20056;-57
2022/11/24 01:38:15;;;;;;;2.35;0.80;;;19.30;61.60;;;;;;5055800;28;20095;-57
2022/11/24 01:40:41;;;;;;;4.43;0.77;;;19.30;61.60;;;;;;5055376;28;20072;-57
2022/11/24 01:43:17;;;;;;;3.63;1.00;;;19.30;61.70;;;;;;5054668;28;20056;-57
2022/11/24 01:45:43;;;;;;;1.90;0.70;;;19.30;61.60;;;;;;5055526;28;20128;-57
2022/11/24 01:48:17;;;;;;;2.47;0.85;;;19.30;61.60;;;;;;5054627;28;20041;-57
2022/11/24 01:50:42;;;;;;;2.35;0.95;;;19.30;61.60;;;;;;5055414;28;20130;-57
2022/11/24 01:53:08;;;;;;;2.75;0.70;;;19.30;61.60;;;;;;5054334;28;20072;-57
2022/11/24 01:55:35;;;;;;;2.33;0.90;;;19.30;61.60;;;;;;5052964;28;20073;-57
2022/11/24 01:58:16;;;;;;;2.83;0.80;;;19.20;61.50;;;;;;5053997;28;20033;-57
2022/11/24 02:00:42;;;;;;;2.30;0.88;;;19.20;61.50;;;;;;5054320;28;20067;-57
2022/11/24 02:03:08;;;;;;;3.00;1.00;;;19.20;61.50;;;;;;5054453;28;20119;-56
2022/11/24 02:05:59;;;;;;;2.90;0.90;;;19.20;61.50;;;;;;5034984;28;20116;-57
2022/11/24 02:08:56;;;;;;;2.75;1.02;;;19.20;61.50;;;;;;5026188;28;20049;-57
2022/11/24 02:11:22;;;;;;;2.88;0.90;;;19.20;61.50;;;;;;5034181;28;20046;-56
2022/11/24 02:13:48;;;;;;;3.63;0.80;;;19.20;61.50;;;;;;5033891;28;20392;-56
2022/11/24 02:16:14;;;;;;;2.80;0.98;;;19.20;61.50;;;;;;5033161;28;20083;-56
2022/11/24 02:18:40;;;;;;;3.42;0.93;;;19.20;61.50;;;;;;5033389;28;20135;-56
2022/11/24 02:21:06;;;;;;;2.80;0.90;;;19.20;61.50;;;;;;5033680;28;20106;-56
2022/11/24 02:23:52;;;;;;;3.10;1.00;;;19.20;61.50;;;;;;5053234;28;20119;-56
2022/11/24 02:26:36;;;;;;;4.38;0.88;;;19.20;61.50;;;;;;5053432;28;20048;-56
2022/11/24 02:29:02;;;;;;;2.67;0.90;;;19.10;61.40;;;;;;5055012;28;20083;-57
2022/11/24 02:31:28;;;;;;;2.80;0.80;;;19.10;61.40;;;;;;5052704;28;20080;-57
2022/11/24 02:33:54;;;;;;;5.38;1.08;;;19.10;61.40;;;;;;5054864;28;20047;-57
2022/11/24 02:36:19;;;;;;;4.32;0.90;;;19.10;61.30;;;;;;5053266;28;20045;-57
2022/11/24 02:38:45;;;;;;;2.47;0.85;;;19.10;61.40;;;;;;5053736;28;20029;-57
2022/11/24 02:41:14;;;;;;;2.63;0.90;;;19.10;61.40;;;;;;5054187;28;20504;-57
2022/11/24 02:43:51;;;;;;;4.18;0.93;;;19.10;61.40;;;;;;5052110;28;20048;-57
2022/11/24 02:46:16;;;;;;;5.53;1.15;;;19.10;61.30;;;;;;5052115;28;20052;-57
2022/11/24 02:48:42;;;;;;;2.33;0.93;;;19.10;61.30;;;;;;5053957;28;20036;-57
2022/11/24 02:51:08;;;;;;;3.00;0.82;;;19.10;61.40;;;;;;5054198;28;20045;-57
2022/11/24 02:53:33;;;;;;;4.50;1.00;;;19.10;61.40;;;;;;5053158;28;20124;-57
2022/11/24 02:55:59;;;;;;;3.13;1.05;;;19.10;61.40;;;;;;5053863;28;20053;-57
2022/11/24 02:58:25;;;;;;;2.67;0.95;;;19.00;61.40;;;;;;5054152;28;20520;-57
2022/11/24 03:00:53;;;;;;;3.92;0.85;;;19.10;61.40;;;;;;5047500;28;20121;-57
2022/11/24 03:03:19;;;;;;;2.35;0.82;;;19.10;61.40;;;;;;5033741;28;20052;-57
2022/11/24 03:05:45;;;;;;;2.17;0.90;;;19.10;61.60;;;;;;5031415;28;20053;-57
2022/11/24 03:08:11;;;;;;;3.45;1.10;;;19.10;61.40;;;;;;5033154;28;20040;-57
2022/11/24 03:10:37;;;;;;;2.70;0.88;;;19.00;62.00;;;;;;5033465;28;20045;-57
2022/11/24 03:13:03;;;;;;;3.92;1.05;;;19.10;61.40;;;;;;5033444;28;20053;-57
2022/11/24 03:15:29;;;;;;;2.55;0.73;;;19.10;61.30;;;;;;5033654;28;20041;-58
2022/11/24 03:17:55;;;;;;;2.38;0.80;;;19.10;61.30;;;;;;5033679;28;20046;-57
2022/11/24 03:20:21;;;;;;;3.65;0.85;;;19.10;61.40;;;;;;5033250;28;20053;-57
2022/11/24 03:22:46;;;;;;;3.08;0.75;;;19.10;61.30;;;;;;5033415;28;20544;-58
2022/11/24 03:25:12;;;;;;;4.65;1.15;;;19.10;61.30;;;;;;5033601;28;20056;-57
2022/11/24 03:27:37;;;;;;;4.07;1.02;;;19.10;61.30;;;;;;5032841;28;20079;-57
2022/11/24 03:30:03;;;;;;;4.28;0.90;;;19.10;61.30;;;;;;5033527;28;20045;-58
2022/11/24 03:32:29;;;;;;;3.38;0.85;;;19.10;61.20;;;;;;5033456;28;20045;-58
2022/11/24 03:34:55;;;;;;;3.65;0.82;;;19.10;61.20;;;;;;5032863;28;20128;-57
2022/11/24 03:37:21;;;;;;;2.55;0.90;;;19.10;61.20;;;;;;5033433;28;20052;-58
2022/11/24 03:39:47;;;;;;;2.90;0.80;;;19.10;61.20;;;;;;5033288;28;20049;-57
2022/11/24 03:42:12;;;;;;;4.00;0.88;;;19.20;61.20;;;;;;5032383;28;20045;-58
2022/11/24 03:44:38;;;;;;;4.03;1.30;;;19.20;61.20;;;;;;5041178;28;20045;-57
2022/11/24 03:47:03;;;;;;;3.83;1.13;;;19.20;61.20;;;;;;5053363;28;20067;-58
2022/11/24 03:49:29;;;;;;;2.72;0.90;;;19.20;61.20;;;;;;5052242;28;20041;-57
2022/11/24 03:51:55;;;;;;;2.20;0.80;;;19.20;61.20;;;;;;5053012;28;20041;-57
2022/11/24 03:54:20;;;;;;;3.92;0.82;;;19.20;61.20;;;;;;5052878;28;20132;-57
2022/11/24 03:56:46;;;;;;;3.33;0.90;;;19.20;61.20;;;;;;5052085;28;20479;-58
2022/11/24 03:59:12;;;;;;;2.90;0.82;;;19.20;61.10;;;;;;5053108;28;20083;-58
2022/11/24 04:01:37;;;;;;;2.88;0.82;;;19.20;61.10;;;;;;5052823;28;20083;-57
2022/11/24 04:04:03;;;;;;;4.47;1.10;;;19.20;61.10;;;;;;5052281;28;20095;-57
2022/11/24 04:06:28;;;;;;;3.72;0.95;;;19.20;61.10;;;;;;5052544;28;20040;-57
2022/11/24 04:08:54;;;;;;;3.75;0.98;;;19.20;61.10;;;;;;5052010;28;20076;-57
2022/11/24 04:14:04;;;;;;;4.68;1.10;;;19.30;61.20;;;;;;5052779;28;20045;-57
2022/11/24 04:16:29;;;;;;;3.95;1.48;;;19.30;61.10;;;;;;5051720;28;20045;-57
2022/11/24 04:18:55;;;;;;;2.58;0.82;;;19.30;61.10;;;;;;5052732;28;20048;-56
2022/11/24 04:21:20;;;;;;;3.83;0.60;;;19.30;61.10;;;;;;5052834;28;20049;-57
2022/11/24 04:23:46;;;;;;;3.30;0.70;;;19.30;61.10;;;;;;5051527;28;20060;-57
2022/11/24 04:26:12;;;;;;;2.85;0.88;;;19.30;61.10;;;;;;5051296;28;20052;-57
2022/11/24 04:28:37;;;;;;;3.75;0.90;;;19.30;61.00;;;;;;5052109;28;20183;-56
2022/11/24 04:31:04;;;;;;;3.05;0.93;;;19.40;61.10;;;;;;5051964;28;20048;-57
2022/11/24 04:33:29;;;;;;;3.47;0.98;;;19.40;61.00;;;;;;5052074;28;20047;-57
2022/11/24 04:35:55;;;;;;;3.85;1.00;;;19.40;61.10;;;;;;5052201;28;20399;-57
2022/11/24 04:38:20;;;;;;;3.03;0.90;;;19.40;61.00;;;;;;5051583;28;20049;-57
2022/11/24 04:40:46;;;;;;;3.25;0.90;;;19.40;61.00;;;;;;5051666;28;20975;-57
2022/11/24 04:43:11;;;;;;;3.60;1.20;;;19.40;61.00;;;;;;5051824;28;20551;-57
2022/11/24 04:45:37;;;;;;;5.05;1.10;;;19.40;61.00;;;;;;5050953;28;20132;-57
2022/11/24 04:48:03;;;;;;;2.35;0.80;;;19.50;61.00;;;;;;5052072;28;20159;-57
2022/11/24 04:50:29;;;;;;;4.30;1.10;;;19.50;61.00;;;;;;5051537;28;20396;-57
2022/11/24 04:52:54;;;;;;;3.50;0.80;;;19.50;61.00;;;;;;5051673;28;20489;-57
2022/11/24 04:55:20;;;;;;;3.45;0.88;;;19.50;60.90;;;;;;5051952;28;20397;-57
2022/11/24 04:57:45;;;;;;;3.03;0.90;;;19.50;61.00;;;;;;5051645;28;20049;-57
2022/11/24 05:00:12;;;;;;;3.13;0.70;;;19.60;61.00;;;;;;5049867;28;20045;-57
2022/11/24 05:02:37;;;;;;;4.43;1.02;;;19.60;60.90;;;;;;5025782;28;20091;-57
2022/11/24 05:05:04;;;;;;;2.70;0.63;;;19.60;60.90;;;;;;5029777;28;20037;-57
2022/11/24 05:07:29;;;;;;;2.83;0.80;;;19.60;60.90;;;;;;5031116;28;20041;-57
2022/11/24 05:12:39;;;;;;;2.92;0.85;;;19.60;60.90;;;;;;5030923;28;20068;-57
2022/11/24 05:15:05;;;;;;;2.70;0.80;;;19.60;60.90;;;;;;5032294;28;20426;-57
2022/11/24 05:17:33;;;;;;;2.67;0.98;;;19.60;60.80;;;;;;5031877;28;20046;-57
2022/11/24 05:19:59;;;;;;;3.50;0.90;;;19.70;60.90;;;;;;5031398;28;20059;-57
2022/11/24 05:22:24;;;;;;;5.20;1.13;;;19.70;60.80;;;;;;5032024;28;20430;-57
2022/11/24 05:24:50;;;;;;;4.80;1.45;;;19.70;60.80;;;;;;5031878;28;20046;-57
2022/11/24 05:27:16;;;;;;;2.10;0.73;;;19.70;60.80;;;;;;5036135;28;20166;-57
2022/11/24 05:29:41;;;;;;;3.13;0.80;;;19.70;60.80;;;;;;5051381;28;20098;-57
2022/11/24 05:32:07;;;;;;;2.35;0.80;;;19.70;60.80;;;;;;5051581;28;20080;-57
2022/11/24 05:34:32;;;;;;;4.07;0.90;;;19.80;60.90;;;;;;5050513;28;20080;-57
2022/11/24 05:37:01;;;;;;;4.55;0.75;;;19.80;60.90;;;;;;5051890;28;20512;-56
2022/11/24 05:39:31;;;;;;;4.15;0.82;;;19.80;60.80;;;;;;5051454;28;20171;-57
2022/11/24 05:41:57;;;;;;;3.50;0.90;;;19.80;60.80;;;;;;5050644;28;20057;-57
2022/11/24 05:44:22;;;;;;;4.07;0.80;;;19.80;60.80;;;;;;5051694;28;20118;-57
2022/11/24 05:46:48;;;;;;;3.80;0.80;;;19.80;60.80;;;;;;5051516;28;20041;-57
2022/11/24 05:49:13;;;;;;;3.25;0.98;;;19.80;60.80;;;;;;5051173;28;20052;-57
2022/11/24 05:51:39;;;;;;;4.25;1.10;;;19.80;60.80;;;;;;5051292;28;20179;-57
2022/11/24 05:54:04;;;;;;;3.05;0.90;;;19.90;60.80;;;;;;5051497;28;20037;-57
2022/11/24 05:56:30;;;;;;;3.92;0.80;;;19.90;60.80;;;;;;5050573;28;20052;-57
2022/11/24 05:58:55;;;;;;;3.22;0.80;;;19.90;60.80;;;;;;5051476;28;20088;-57
2022/11/24 06:01:21;;;;;;;2.88;0.80;;;19.90;60.70;;;;;;5050846;28;20045;-57
2022/11/24 06:03:46;;;;;;;3.67;0.73;;;19.90;60.70;;;;;;5051042;28;20049;-57
2022/11/24 06:06:12;;;;;;;4.03;1.00;;;19.90;60.70;;;;;;5051503;28;20396;-57
2022/11/24 06:08:38;;;;;;;3.08;0.70;;;19.90;60.70;;;;;;5050152;28;20888;-57
2022/11/24 06:11:19;;;;;;;2.97;0.80;;;19.90;60.70;;;;;;5051257;28;20044;-57
2022/11/24 06:13:45;;;;;;;4.00;1.20;;;19.90;60.70;;;;;;5051156;28;20044;-57
2022/11/24 06:16:11;;;;;;;2.95;0.80;;;19.90;60.70;;;;;;5050461;28;20037;-56
2022/11/24 06:18:36;;;;;;;2.78;0.80;;;19.90;60.70;;;;;;5051111;28;20128;-57
2022/11/24 06:21:03;;;;;;;3.60;0.98;;;20.00;60.80;;;;;;5054889;28;20077;-57
2022/11/24 06:23:28;;;;;;;1.85;0.73;;;19.90;60.60;;;;;;5053607;28;20374;-57
2022/11/24 06:25:58;;;;;;;3.83;1.13;;;20.00;60.70;;;;;;5054694;28;20037;-57
2022/11/24 06:28:25;;;;;;;2.75;0.70;;;20.00;60.70;;;;;;5053502;28;20051;-57
2022/11/24 06:30:50;;;;;;;3.28;0.90;;;20.00;60.70;;;;;;5052292;28;20045;-57
2022/11/24 06:33:16;;;;;;;3.38;0.90;;;20.00;60.70;;;;;;5054633;28;20136;-57
2022/11/24 06:35:41;;;;;;;3.35;0.70;;;20.00;60.60;;;;;;5054477;28;20040;-56
2022/11/24 06:38:07;;;;;;;2.60;0.70;;;20.00;60.70;;;;;;5054137;28;20041;-57
2022/11/24 06:40:32;;;;;;;4.35;1.05;;;20.00;60.70;;;;;;5054486;28;20037;-57
2022/11/24 06:42:58;;;;;;;2.67;0.88;;;19.90;60.60;;;;;;5054296;28;20053;-57
2022/11/24 06:45:23;;;;;;;4.40;0.77;;;20.00;60.70;;;;;;5053824;28;20037;-57
2022/11/24 06:47:52;;;;;;;2.55;0.75;;;20.00;60.70;;;;;;5053859;28;20099;-57
2022/11/24 06:50:24;;;;;;;3.20;0.90;;;20.00;60.60;;;;;;5052851;28;20099;-58
2022/11/24 06:52:50;;;;;;;4.32;0.90;;;20.00;60.60;;;;;;5053356;28;20037;-58
2022/11/24 06:55:15;;;;;;;2.92;0.70;;;20.00;60.60;;;;;;5054256;28;20111;-57
2022/11/24 06:57:41;;;;;;;3.40;1.02;;;20.00;60.60;;;;;;5053350;28;20045;-57
2022/11/24 07:00:07;;;;;;;4.18;0.70;;;20.00;60.60;;;;;;5052746;28;20057;-57
2022/11/24 07:02:33;;;;;;;3.00;0.80;;;20.10;60.60;;;;;;5054192;28;20037;-57
2022/11/24 07:04:58;;;;;;;2.40;0.60;;;20.10;60.60;;;;;;5053113;28;20067;-57
2022/11/24 07:07:24;;;;;;;8.45;1.08;;;20.10;60.60;;;;;;5053850;28;20057;-57
2022/11/24 07:09:49;;;;;;;3.25;0.90;;;20.00;60.60;;;;;;5053914;28;20037;-57
2022/11/24 07:12:15;;;;;;;4.47;0.90;;;20.10;60.80;;;;;;5053208;28;20168;-57
2022/11/24 07:14:41;;;;;;;2.10;0.60;;;20.00;60.70;;;;;;5053865;28;20045;-57
2022/11/24 07:17:06;;;;;;;3.53;0.88;;;20.10;60.80;;;;;;5053795;28;20224;-57
2022/11/24 07:19:32;;;;;;;2.65;0.80;;;20.10;60.90;;;;;;5052744;28;20037;-57
2022/11/24 07:21:57;;;;;;;4.18;1.20;;;20.10;60.90;;;;;;5052972;28;20497;-57
2022/11/24 07:24:23;;;;;;;3.92;0.90;;;20.10;60.90;;;;;;5053090;28;20555;-58
2022/11/24 07:26:49;;;;;;;4.07;0.88;;;20.00;61.00;;;;;;5052284;28;20048;-58
2022/11/24 07:29:14;;;;;;;5.70;1.40;;;20.10;61.00;;;;;;5053669;28;20049;-57
2022/11/24 07:31:41;;;;;;;4.20;1.08;;;20.10;61.10;;;;;;5051303;28;20045;-58
2022/11/24 07:34:06;;;;;;;5.90;0.90;;;20.10;61.30;;;;;;5052204;28;20416;-57
2022/11/24 07:36:32;;;;;;;5.60;0.82;;;20.10;61.40;;;;;;5053307;28;20485;-58
2022/11/24 07:38:57;;;;;;;6.10;0.82;;;20.20;61.50;;;;;;5053204;28;20072;-57
2022/11/24 07:41:23;;;;;;;4.38;1.15;;;20.20;61.60;;;;;;5052109;28;20114;-57
2022/11/24 07:43:50;;;;;;;4.30;1.02;;;20.20;61.60;;;;;;5052667;28;20488;-57
2022/11/24 07:46:16;;;;;;;4.63;1.02;;;20.20;61.70;;;;;;5053202;28;20079;-57
2022/11/24 07:48:42;;;;;;;3.92;0.88;;;20.20;61.80;;;;;;5052309;28;20124;-58
2022/11/24 07:51:08;;;;;;;4.18;0.77;;;20.20;61.80;;;;;;5034633;28;20465;-56
2022/11/24 07:53:34;;;;;;;5.90;1.10;;;20.20;61.90;;;;;;5032303;28;20125;-57
2022/11/24 07:56:00;;;;;;;3.08;0.80;;;20.30;62.10;;;;;;5032072;28;20049;-57
2022/11/24 07:58:30;;;;;;;5.50;0.70;;;20.30;62.20;;;;;;5032989;28;20037;-57
2022/11/24 08:00:56;;;;;;;2.75;0.85;;;20.30;62.10;;;;;;5031568;28;20127;-56
2022/11/24 08:03:22;;;;;;;2.60;0.70;;;20.20;62.10;;;;;;5032113;28;20200;-56
2022/11/24 08:05:55;;;;;;;4.55;0.98;;;20.30;62.10;;;;;;5034816;28;20044;-56
2022/11/24 08:08:20;;;;;;;6.43;0.90;;;20.30;62.10;;;;;;5051673;28;20500;-56
2022/11/24 08:10:46;;;;;;;5.38;0.90;;;20.30;62.10;;;;;;5052572;28;20044;-56
2022/11/24 08:13:11;;;;;;;4.55;1.00;;;20.30;62.20;;;;;;5052989;28;20040;-57
2022/11/24 08:15:37;;;;;;;4.43;1.08;;;20.30;62.20;;;;;;5051809;28;20049;-57
2022/11/24 08:18:03;;;;;;;4.47;0.90;;;20.30;62.20;;;;;;5052826;28;20045;-57
2022/11/24 08:20:29;;;;;;;4.80;0.82;;;20.30;62.20;;;;;;5050689;28;20041;-56
2022/11/24 08:22:58;;;;;;;3.70;0.95;;;20.30;62.30;;;;;;5051279;28;20065;-56
2022/11/24 08:25:30;;;;;;;4.82;0.90;;;20.30;62.30;;;;;;5052631;28;20049;-56
2022/11/24 08:27:55;;;;;;;3.90;1.00;;;20.30;62.40;;;;;;5052333;28;20528;-57
2022/11/24 08:30:21;;;;;;;4.30;1.00;;;20.40;62.40;;;;;;5051607;28;20061;-57
2022/11/24 08:32:47;;;;;;;3.20;1.10;;;20.40;62.50;;;;;;5052080;28;20528;-57
2022/11/24 08:35:13;;;;;;;4.50;0.82;;;20.40;62.50;;;;;;5052222;28;20358;-57
2022/11/24 08:37:38;;;;;;;3.88;1.02;;;20.40;62.60;;;;;;5051260;28;20056;-57
2022/11/24 08:40:04;;;;;;;5.97;1.20;;;20.40;62.60;;;;;;5052248;28;20045;-57
2022/11/24 08:42:30;;;;;;;3.72;0.80;;;20.40;62.60;;;;;;5049788;28;20107;-57
2022/11/24 08:44:55;;;;;;;4.38;0.80;;;20.40;62.70;;;;;;5051295;28;20044;-57
2022/11/24 08:47:21;;;;;;;3.28;0.70;;;20.40;62.60;;;;;;5052431;28;20503;-57
2022/11/24 08:49:47;;;;;;;5.50;1.10;;;20.40;62.70;;;;;;5051776;28;20500;-57
2022/11/24 08:52:12;;;;;;;5.35;1.30;;;20.50;62.80;;;;;;5051301;28;20045;-57
2022/11/24 08:54:39;;;;;;;4.28;0.90;;;20.40;62.70;;;;;;5051726;28;20561;-57
2022/11/24 08:57:05;;;;;;;5.07;0.88;;;20.40;62.80;;;;;;5052068;28;20080;-57
2022/11/24 08:59:30;;;;;;;7.63;1.05;;;20.50;62.80;;;;;;5044744;28;20087;-57
2022/11/24 09:01:56;;;;;;;3.63;0.90;;;20.40;62.80;;;;;;5023377;28;20073;-58
2022/11/24 09:04:21;;;;;;;4.47;1.20;;;20.50;62.70;;;;;;5023063;28;20125;-58
2022/11/24 09:06:47;;;;;;;4.78;0.80;;;20.50;62.60;;;;;;5023134;28;20095;-57
2022/11/24 09:09:12;;;;;;;4.05;0.93;;;20.50;62.60;;;;;;5031043;28;20034;-57
2022/11/24 09:11:38;;;;;;;4.43;1.00;;;20.50;62.50;;;;;;5029627;28;20393;-57
2022/11/24 09:14:04;;;;;;;5.78;0.82;;;20.50;62.40;;;;;;5031777;28;20511;-57
2022/11/24 09:16:29;;;;;;;4.72;1.00;;;20.50;62.50;;;;;;5031654;28;20045;-57
2022/11/24 09:18:57;;;;;;;4.45;1.00;;;20.50;62.40;;;;;;5031480;28;20068;-57
2022/11/24 09:21:22;;;;;;;5.40;1.27;;;20.50;62.40;;;;;;5031757;28;20115;-57
2022/11/24 09:23:49;;;;;;;4.45;1.00;;;20.50;62.30;;;;;;5031776;28;20439;-57
2022/11/24 09:26:16;;;;;;;2.63;0.80;;;20.50;62.20;;;;;;5030872;28;21480;-57
2022/11/24 09:28:41;;;;;;;4.28;1.02;;;20.50;62.10;;;;;;5028934;28;20060;-57
2022/11/24 09:31:09;;;;;;;4.18;1.05;;;20.50;62.20;;;;;;5031557;28;20408;-57
2022/11/24 09:33:34;;;;;;;3.30;0.77;;;20.50;62.30;;;;;;5030344;28;20044;-57
2022/11/24 09:36:00;;;;;;;4.68;0.82;;;20.50;62.40;;;;;;5031670;28;20053;-56
2022/11/24 09:38:26;;;;;;;4.03;0.88;;;20.50;62.40;;;;;;5032000;28;20044;-57
2022/11/24 09:40:52;;;;;;;3.35;1.10;;;20.50;62.40;;;;;;5030914;28;20388;-57
2022/11/24 09:43:54;;;;;;;4.55;0.90;;;20.50;62.40;;;;;;5031541;28;20123;-57
2022/11/24 09:46:32;;;;;;;3.22;0.80;;;20.50;62.40;;;;;;5011463;28;20492;-56
2022/11/24 09:48:57;;;;;;;4.22;0.90;;;20.40;62.40;;;;;;5010747;28;20046;-56
2022/11/24 09:51:25;;;;;;;4.97;1.00;;;20.50;62.40;;;;;;5011970;28;20042;-57
2022/11/24 09:54:10;;;;;;;6.15;1.10;;;20.50;62.30;;;;;;5014495;28;20030;-56
2022/11/24 09:56:36;;;;;;;3.20;0.80;;;20.40;62.20;;;;;;5035153;28;20109;-56
2022/11/24 09:59:21;;;;;;;3.85;0.82;;;20.40;62.30;;;;;;5033756;28;20113;-56
2022/11/24 10:01:47;;;;;;;6.53;1.08;;;20.40;62.30;;;;;;5031786;28;20378;-57
2022/11/24 10:04:34;;;;;;;4.13;1.17;;;20.40;62.40;;;;;;5034489;28;20038;-56
2022/11/24 10:07:04;;;;;;;4.78;1.00;;;20.40;62.40;;;;;;5032866;28;20080;-57
2022/11/24 10:09:39;;;;;;;3.90;1.00;;;20.40;62.40;;;;;;5033445;28;20366;-56
2022/11/24 10:12:29;;;;;;;3.80;0.85;;;20.40;62.40;;;;;;5013985;28;20038;-58
2022/11/24 10:15:11;;;;;;;4.40;0.75;;;20.40;62.40;;;;;;5013577;28;20046;-57
2022/11/24 10:17:56;;;;;;;3.60;0.88;;;20.40;62.40;;;;;;5014345;28;20049;-58
2022/11/24 10:20:51;;;;;;;3.70;0.90;;;20.40;62.40;;;;;;5015446;28;20070;-57
2022/11/24 10:23:19;;;;;;;4.97;0.90;;;20.40;62.40;;;;;;5023611;28;20045;-57
2022/11/24 10:25:57;;;;;;;4.00;0.75;;;20.40;62.40;;;;;;5024388;28;20050;-57
2022/11/24 10:28:32;;;;;;;2.55;0.70;;;20.40;62.40;;;;;;5032737;28;20172;-57
2022/11/24 10:31:29;;;;;;;3.65;0.80;;;20.30;62.40;;;;;;5030962;28;20052;-57
2022/11/24 10:33:56;;;;;;;3.97;1.00;;;20.30;62.40;;;;;;5026028;28;20448;-57
2022/11/24 10:36:30;;;;;;;6.68;1.45;;;20.30;62.40;;;;;;5033745;28;20552;-57
2022/11/24 10:39:02;;;;;;;7.28;1.70;;;20.30;62.40;;;;;;5033303;28;20037;-56
2022/11/24 10:41:50;;;;;;;4.53;1.63;;;20.30;62.50;;;;;;5032397;28;20058;-57
2022/11/24 10:44:16;;;;;;;;;;;20.30;62.50;;;;;;5030434;28;20100;-57
2022/11/24 10:46:41;;;;;;;6.55;1.55;;;20.30;62.50;;;;;;5033796;28;20401;-57
2022/11/24 10:49:09;;;;;;;5.78;1.52;;;20.30;62.60;;;;;;5033996;28;20049;-57
2022/11/24 10:51:37;;;;;;;;;;;20.30;62.70;;;;;;5029985;28;20041;-57
2022/11/24 10:54:16;;;;;;;7.40;1.83;;;20.30;62.70;;;;;;5032582;28;19921;-58
2022/11/24 10:56:41;;;;;;;4.72;1.50;;;20.30;62.80;;;;;;5031393;28;20124;-57
2022/11/24 10:59:24;;;;;;;4.82;1.50;;;20.30;62.80;;;;;;5033248;28;20128;-58
2022/11/24 11:01:51;;;;;;;5.80;1.42;;;20.20;62.70;;;;;;5031981;28;20084;-57
2022/11/24 11:04:21;;;;;;;6.70;1.70;;;20.20;62.70;;;;;;5032603;28;20092;-57
2022/11/24 11:06:46;;;;;;;6.45;1.90;;;20.20;62.70;;;;;;5032176;28;20475;-57
2022/11/24 11:09:18;;;;;;;6.82;1.90;;;20.20;62.80;;;;;;5032731;28;20041;-58
2022/11/24 11:11:47;;;;;;;7.38;2.05;;;20.30;62.80;;;;;;5032847;28;20042;-58
2022/11/24 11:14:12;;;;;;;5.22;1.85;;;20.20;62.70;;;;;;5033723;28;20323;-57
2022/11/24 11:16:52;;;;;;;7.93;1.95;;;20.20;62.70;;;;;;5032037;28;20091;-58
2022/11/24 11:19:32;;;;;;;5.97;1.38;;;20.20;62.60;;;;;;5031575;28;20288;-57
2022/11/24 11:22:10;;;;;;;5.70;1.85;;;20.20;62.60;;;;;;5033602;28;20045;-57
2022/11/24 11:24:37;;;;;;;6.07;2.20;;;20.20;62.70;;;;;;5032072;28;20053;-57
2022/11/24 11:27:17;;;;;;;8.57;2.67;;;20.20;62.70;;;;;;5031671;28;20073;-58
2022/11/24 11:29:42;;;;;;;6.82;2.05;;;20.20;62.60;;;;;;5031383;28;20508;-58
2022/11/24 11:32:19;;;;;;;6.38;1.73;;;20.20;62.70;;;;;;5031410;28;20049;-57
2022/11/24 11:34:44;;;;;;;6.32;1.77;;;20.20;62.70;;;;;;5032874;28;20485;-57
2022/11/24 11:37:12;;;;;;;6.85;1.95;;;20.20;62.70;;;;;;5033362;28;20050;-57
2022/11/24 11:39:40;;;;;;;7.90;1.90;;;20.20;62.70;;;;;;5030787;28;20059;-57
2022/11/24 11:42:33;;;;;;;7.88;2.13;;;20.20;62.70;;;;;;5026973;28;20061;-58
2022/11/24 11:45:25;;;;;;;6.32;1.83;;;20.10;62.70;;;;;;5020943;28;20042;-58
2022/11/24 11:48:01;;;;;;;9.05;1.90;;;20.20;62.70;;;;;;5013686;28;20050;-58
2022/11/24 11:50:42;;;;;;;6.50;2.10;;;20.20;62.80;;;;;;5023774;28;20064;-58
2022/11/24 11:53:32;;;;;;;6.40;1.80;;;20.10;62.80;;;;;;5018695;28;20046;-58
2022/11/24 11:56:01;;;;;;;5.85;1.83;;;20.10;62.90;;;;;;5022515;28;20493;-58
2022/11/24 11:58:51;;;;;;;5.45;1.77;;;20.10;62.90;;;;;;5023324;28;20128;-58
2022/11/24 12:01:42;;;;;;;7.55;1.77;;;20.10;63.00;;;;;;5022644;28;20116;-57
2022/11/24 12:04:13;;;;;;;8.20;2.22;;;20.10;63.00;;;;;;5024035;28;20038;-57
2022/11/24 12:06:50;;;;;;;5.53;1.52;;;20.10;63.00;;;;;;5024468;28;20455;-57
2022/11/24 12:09:47;;;;;;;7.78;1.58;;;20.10;63.10;;;;;;5019303;28;20169;-57
2022/11/24 12:12:36;;;;;;;8.35;1.75;;;20.10;63.00;;;;;;5023139;28;20079;-57
2022/11/24 12:15:05;;;;;;;8.40;1.90;;;20.10;63.10;;;;;;5018869;28;20042;-57
2022/11/24 12:17:31;;;;;;;;;;;20.10;63.40;;;;;;5025205;28;20127;-57
2022/11/24 12:20:14;;;;;;;6.90;1.95;;;20.10;63.00;;;;;;5031145;28;20395;-58
2022/11/24 12:22:47;;;;;;;3.88;1.60;;;20.10;63.10;;;;;;5031621;28;20080;-58
2022/11/24 12:25:45;;;;;;;6.20;1.45;;;20.10;63.10;;;;;;5031795;28;20099;-57
2022/11/24 12:28:49;;;;;;;5.88;1.70;;;20.10;63.20;;;;;;5031936;28;20067;-58
2022/11/24 12:31:45;;;;;;;5.20;1.60;;;20.10;63.10;;;;;;5009426;28;20053;-57
2022/11/24 12:34:33;;;;;;;8.00;1.40;;;20.10;63.10;;;;;;5031376;28;20075;-57
2022/11/24 12:37:38;;;;;;;5.05;1.70;;;20.00;62.90;;;;;;5030535;28;20053;-56
2022/11/24 12:40:12;;;;;;;6.75;1.73;;;20.10;62.90;;;;;;5032143;28;20049;-57
2022/11/24 12:42:58;;;;;;;5.88;1.35;;;20.10;62.70;;;;;;5030069;28;20493;-57
2022/11/24 12:45:32;;;;;;;5.57;1.50;;;20.10;62.50;;;;;;5031136;28;20550;-57
2022/11/24 12:48:23;;;;;;;6.05;1.92;;;20.10;62.50;;;;;;5031285;28;20041;-57
2022/11/24 12:50:48;;;;;;;6.60;1.30;;;20.10;62.50;;;;;;5031225;28;20049;-57
2022/11/24 12:53:18;;;;;;;4.90;1.52;;;20.10;62.50;;;;;;5031505;28;20044;-57
2022/11/24 12:55:44;;;;;;;4.82;1.52;;;20.10;62.40;;;;;;5031906;28;20053;-57
2022/11/24 12:58:33;;;;;;;4.38;1.58;;;20.10;62.40;;;;;;5049744;28;20045;-57
2022/11/24 13:01:35;;;;;;;3.95;1.10;;;20.20;62.40;;;;;;5050791;28;20409;-57
2022/11/24 13:04:30;;;;;;;4.18;1.60;;;20.20;62.40;;;;;;5051336;28;20132;-57